sensor_id;sensor_type;location;lat;lon;timestamp;pressure;altitude;pressure_sealevel;temperature;humidity
3598;BME280;1813;52.016;8.714;2023-07-09T00:00:24;-16261.94;;;-139.71;57.64
3598;BME280;1813;52.016;8.714;2023-07-09T00:02:57;-16261.94;;;-139.71;57.44
3598;BME280;1813;52.016;8.714;2023-07-09T00:05:31;-16261.94;;;-139.71;57.16
3598;BME280;1813;52.016;8.714;2023-07-09T00:10:55;-16261.94;;;-139.71;56.84
3598;BME280;1813;52.016;8.714;2023-07-09T00:13:29;-16261.94;;;-139.71;57.13
3598;BME280;1813;52.016;8.714;2023-07-09T00:16:11;-16261.94;;;-139.71;57.68
3598;BME280;1813;52.016;8.714;2023-07-09T00:18:47;-16261.94;;;-139.71;58.14
3598;BME280;1813;52.016;8.714;2023-07-09T00:21:22;-16261.94;;;-139.71;58.35
3598;BME280;1813;52.016;8.714;2023-07-09T00:23:58;-16261.94;;;-139.71;57.57
3598;BME280;1813;52.016;8.714;2023-07-09T00:26:35;-16261.94;;;-139.71;58.24
3598;BME280;1813;52.016;8.714;2023-07-09T00:29:09;-16261.94;;;-139.71;58.60
3598;BME280;1813;52.016;8.714;2023-07-09T00:31:44;-16261.94;;;-139.71;59.16
3598;BME280;1813;52.016;8.714;2023-07-09T00:34:18;-16261.94;;;-139.71;59.33
3598;BME280;1813;52.016;8.714;2023-07-09T00:36:52;-16261.94;;;-139.71;59.79
3598;BME280;1813;52.016;8.714;2023-07-09T00:39:28;-16261.94;;;-139.71;59.65
3598;BME280;1813;52.016;8.714;2023-07-09T00:42:03;-16261.94;;;-139.71;60.21
3598;BME280;1813;52.016;8.714;2023-07-09T00:44:38;-16261.94;;;-139.71;60.15
3598;BME280;1813;52.016;8.714;2023-07-09T00:47:31;-16261.94;;;-139.71;60.16
3598;BME280;1813;52.016;8.714;2023-07-09T00:50:24;-16261.94;;;-139.71;60.45
3598;BME280;1813;52.016;8.714;2023-07-09T00:53:04;-16261.94;;;-139.71;59.91
3598;BME280;1813;52.016;8.714;2023-07-09T00:55:47;-16261.94;;;-139.71;59.63
3598;BME280;1813;52.016;8.714;2023-07-09T00:58:24;-16261.94;;;-139.71;60.35
3598;BME280;1813;52.016;8.714;2023-07-09T01:01:03;-16261.94;;;-139.71;60.43
3598;BME280;1813;52.016;8.714;2023-07-09T01:03:41;-16261.94;;;-139.71;60.31
3598;BME280;1813;52.016;8.714;2023-07-09T01:06:18;-16261.94;;;-139.71;60.45
3598;BME280;1813;52.016;8.714;2023-07-09T01:08:53;-16261.94;;;-139.71;60.62
3598;BME280;1813;52.016;8.714;2023-07-09T01:11:30;-16261.94;;;-139.71;61.08
3598;BME280;1813;52.016;8.714;2023-07-09T01:14:06;-16261.94;;;-139.71;61.75
3598;BME280;1813;52.016;8.714;2023-07-09T01:16:44;-16261.94;;;-139.71;61.89
3598;BME280;1813;52.016;8.714;2023-07-09T01:19:21;-16261.94;;;-139.71;62.11
3598;BME280;1813;52.016;8.714;2023-07-09T01:22:00;-16261.94;;;-139.71;61.63
3598;BME280;1813;52.016;8.714;2023-07-09T01:24:51;-16261.94;;;-139.71;61.50
3598;BME280;1813;52.016;8.714;2023-07-09T01:27:29;-16261.94;;;-139.71;60.64
3598;BME280;1813;52.016;8.714;2023-07-09T01:30:07;-16261.94;;;-139.71;61.67
3598;BME280;1813;52.016;8.714;2023-07-09T01:32:42;-16261.94;;;-139.71;62.44
3598;BME280;1813;52.016;8.714;2023-07-09T01:35:19;-16261.94;;;-139.71;62.81
3598;BME280;1813;52.016;8.714;2023-07-09T01:37:56;-16261.94;;;-139.71;62.69
3598;BME280;1813;52.016;8.714;2023-07-09T01:40:29;-16261.94;;;-139.71;62.21
3598;BME280;1813;52.016;8.714;2023-07-09T01:43:04;-16261.94;;;-139.71;62.61
3598;BME280;1813;52.016;8.714;2023-07-09T01:45:39;-16261.94;;;-139.71;62.40
3598;BME280;1813;52.016;8.714;2023-07-09T01:48:13;-16261.94;;;-139.71;62.32
3598;BME280;1813;52.016;8.714;2023-07-09T01:50:47;-16261.94;;;-139.71;62.55
3598;BME280;1813;52.016;8.714;2023-07-09T01:53:26;-16261.94;;;-139.71;62.46
3598;BME280;1813;52.016;8.714;2023-07-09T01:56:01;-16261.94;;;-139.71;62.81
3598;BME280;1813;52.016;8.714;2023-07-09T01:58:38;-16261.94;;;-139.71;62.53
3598;BME280;1813;52.016;8.714;2023-07-09T02:01:15;-16261.94;;;-139.71;62.59
3598;BME280;1813;52.016;8.714;2023-07-09T02:03:50;-16261.94;;;-139.71;62.30
3598;BME280;1813;52.016;8.714;2023-07-09T02:06:26;-16261.94;;;-139.71;62.57
3598;BME280;1813;52.016;8.714;2023-07-09T02:09:05;-16261.94;;;-139.71;62.80
3598;BME280;1813;52.016;8.714;2023-07-09T02:11:38;-16261.94;;;-139.71;62.76
3598;BME280;1813;52.016;8.714;2023-07-09T02:14:12;-16261.94;;;-139.71;62.17
3598;BME280;1813;52.016;8.714;2023-07-09T02:16:47;-16261.94;;;-139.71;61.92
3598;BME280;1813;52.016;8.714;2023-07-09T02:19:22;-16261.94;;;-139.71;61.91
3598;BME280;1813;52.016;8.714;2023-07-09T02:21:56;-16261.94;;;-139.71;61.86
3598;BME280;1813;52.016;8.714;2023-07-09T02:24:33;-16261.94;;;-139.71;62.04
3598;BME280;1813;52.016;8.714;2023-07-09T02:27:09;-16261.94;;;-139.71;62.20
3598;BME280;1813;52.016;8.714;2023-07-09T02:29:44;-16261.94;;;-139.71;62.37
3598;BME280;1813;52.016;8.714;2023-07-09T02:32:21;-16261.94;;;-139.71;62.00
3598;BME280;1813;52.016;8.714;2023-07-09T02:34:56;-16261.94;;;-139.71;62.18
3598;BME280;1813;52.016;8.714;2023-07-09T02:37:30;-16261.94;;;-139.71;62.11
3598;BME280;1813;52.016;8.714;2023-07-09T02:40:08;-16261.94;;;-139.71;62.57
3598;BME280;1813;52.016;8.714;2023-07-09T02:42:42;-16261.94;;;-139.71;62.69
3598;BME280;1813;52.016;8.714;2023-07-09T02:45:18;-16261.94;;;-139.71;62.44
3598;BME280;1813;52.016;8.714;2023-07-09T02:47:52;-16261.94;;;-139.71;62.03
3598;BME280;1813;52.016;8.714;2023-07-09T02:50:26;-16261.94;;;-139.71;62.71
3598;BME280;1813;52.016;8.714;2023-07-09T02:53:00;-16261.94;;;-139.71;62.98
3598;BME280;1813;52.016;8.714;2023-07-09T02:55:37;-16261.94;;;-139.71;63.49
3598;BME280;1813;52.016;8.714;2023-07-09T02:58:11;-16261.94;;;-139.71;64.07
3598;BME280;1813;52.016;8.714;2023-07-09T03:00:48;-16261.94;;;-139.71;64.86
3598;BME280;1813;52.016;8.714;2023-07-09T03:03:23;-16261.94;;;-139.71;64.71
3598;BME280;1813;52.016;8.714;2023-07-09T03:05:59;-16261.94;;;-139.71;64.75
3598;BME280;1813;52.016;8.714;2023-07-09T03:08:33;-16261.94;;;-139.71;64.97
3598;BME280;1813;52.016;8.714;2023-07-09T03:11:14;-16261.94;;;-139.71;64.38
3598;BME280;1813;52.016;8.714;2023-07-09T03:13:49;-16261.94;;;-139.71;64.19
3598;BME280;1813;52.016;8.714;2023-07-09T03:16:23;-16261.94;;;-139.71;63.89
3598;BME280;1813;52.016;8.714;2023-07-09T03:18:58;-16261.94;;;-139.71;63.32
3598;BME280;1813;52.016;8.714;2023-07-09T03:21:32;-16261.94;;;-139.71;63.38
3598;BME280;1813;52.016;8.714;2023-07-09T03:24:07;-16261.94;;;-139.71;63.52
3598;BME280;1813;52.016;8.714;2023-07-09T03:26:44;-16261.94;;;-139.71;64.33
3598;BME280;1813;52.016;8.714;2023-07-09T03:29:18;-16261.94;;;-139.71;64.34
3598;BME280;1813;52.016;8.714;2023-07-09T03:31:51;-16261.94;;;-139.71;64.11
3598;BME280;1813;52.016;8.714;2023-07-09T03:34:25;-16261.94;;;-139.71;63.98
3598;BME280;1813;52.016;8.714;2023-07-09T03:36:59;-16261.94;;;-139.71;64.15
3598;BME280;1813;52.016;8.714;2023-07-09T03:39:33;-16261.94;;;-139.71;64.08
3598;BME280;1813;52.016;8.714;2023-07-09T03:42:10;-16261.94;;;-139.71;63.94
3598;BME280;1813;52.016;8.714;2023-07-09T03:44:44;-16261.94;;;-139.71;63.58
3598;BME280;1813;52.016;8.714;2023-07-09T03:47:18;-16261.94;;;-139.71;63.52
3598;BME280;1813;52.016;8.714;2023-07-09T03:49:52;-16261.94;;;-139.71;63.59
3598;BME280;1813;52.016;8.714;2023-07-09T03:52:25;-16261.94;;;-139.71;63.74
3598;BME280;1813;52.016;8.714;2023-07-09T03:55:00;-16261.94;;;-139.71;63.83
3598;BME280;1813;52.016;8.714;2023-07-09T03:57:37;-16261.94;;;-139.71;64.08
3598;BME280;1813;52.016;8.714;2023-07-09T04:00:12;-16261.94;;;-139.71;64.42
3598;BME280;1813;52.016;8.714;2023-07-09T04:02:46;-16261.94;;;-139.71;64.45
3598;BME280;1813;52.016;8.714;2023-07-09T04:05:20;-16261.94;;;-139.71;64.32
3598;BME280;1813;52.016;8.714;2023-07-09T04:07:54;-16261.94;;;-139.71;64.12
3598;BME280;1813;52.016;8.714;2023-07-09T04:10:28;-16261.94;;;-139.71;63.59
3598;BME280;1813;52.016;8.714;2023-07-09T04:13:04;-16261.94;;;-139.71;64.30
3598;BME280;1813;52.016;8.714;2023-07-09T04:15:38;-16261.94;;;-139.71;64.24
3598;BME280;1813;52.016;8.714;2023-07-09T04:18:12;-16261.94;;;-139.71;64.50
3598;BME280;1813;52.016;8.714;2023-07-09T04:20:48;-16261.94;;;-139.71;65.07
3598;BME280;1813;52.016;8.714;2023-07-09T04:23:22;-16261.94;;;-139.71;66.13
3598;BME280;1813;52.016;8.714;2023-07-09T04:25:57;-16261.94;;;-139.71;66.01
3598;BME280;1813;52.016;8.714;2023-07-09T04:28:36;-16261.94;;;-139.71;65.83
3598;BME280;1813;52.016;8.714;2023-07-09T04:31:10;-16261.94;;;-139.71;65.55
3598;BME280;1813;52.016;8.714;2023-07-09T04:33:44;-16261.94;;;-139.71;64.71
3598;BME280;1813;52.016;8.714;2023-07-09T04:36:18;-16261.94;;;-139.71;64.02
3598;BME280;1813;52.016;8.714;2023-07-09T04:38:52;-16261.94;;;-139.71;63.87
3598;BME280;1813;52.016;8.714;2023-07-09T04:41:26;-16261.94;;;-139.71;63.81
3598;BME280;1813;52.016;8.714;2023-07-09T04:44:02;-16261.94;;;-139.71;63.75
3598;BME280;1813;52.016;8.714;2023-07-09T04:46:36;-16261.94;;;-139.71;63.45
3598;BME280;1813;52.016;8.714;2023-07-09T04:49:10;-16261.94;;;-139.71;63.96
3598;BME280;1813;52.016;8.714;2023-07-09T04:51:44;-16261.94;;;-139.71;63.58
3598;BME280;1813;52.016;8.714;2023-07-09T04:54:18;-16261.94;;;-139.71;63.88
3598;BME280;1813;52.016;8.714;2023-07-09T04:56:54;-16261.94;;;-139.71;64.86
3598;BME280;1813;52.016;8.714;2023-07-09T04:59:32;-16261.94;;;-139.71;65.23
3598;BME280;1813;52.016;8.714;2023-07-09T05:02:07;-16261.94;;;-139.71;66.04
3598;BME280;1813;52.016;8.714;2023-07-09T05:04:42;-16261.94;;;-139.71;66.08
3598;BME280;1813;52.016;8.714;2023-07-09T05:07:16;-16261.94;;;-139.71;66.87
3598;BME280;1813;52.016;8.714;2023-07-09T05:09:50;-16261.94;;;-139.71;66.58
3598;BME280;1813;52.016;8.714;2023-07-09T05:12:26;-16261.94;;;-139.71;66.75
3598;BME280;1813;52.016;8.714;2023-07-09T05:15:02;-16261.94;;;-139.71;67.28
3598;BME280;1813;52.016;8.714;2023-07-09T05:17:36;-16261.94;;;-139.71;67.49
3598;BME280;1813;52.016;8.714;2023-07-09T05:20:10;-16261.94;;;-139.71;67.94
3598;BME280;1813;52.016;8.714;2023-07-09T05:22:44;-16261.94;;;-139.71;68.49
3598;BME280;1813;52.016;8.714;2023-07-09T05:25:18;-16261.94;;;-139.71;69.00
3598;BME280;1813;52.016;8.714;2023-07-09T05:27:52;-16261.94;;;-139.71;69.07
3598;BME280;1813;52.016;8.714;2023-07-09T05:30:29;-16261.94;;;-139.71;68.21
3598;BME280;1813;52.016;8.714;2023-07-09T05:33:03;-16261.94;;;-139.71;66.96
3598;BME280;1813;52.016;8.714;2023-07-09T05:35:37;-16261.94;;;-139.71;65.55
3598;BME280;1813;52.016;8.714;2023-07-09T05:38:11;-16261.94;;;-139.71;64.72
3598;BME280;1813;52.016;8.714;2023-07-09T05:40:46;-16261.94;;;-139.71;64.83
3598;BME280;1813;52.016;8.714;2023-07-09T05:43:20;-16261.94;;;-139.71;65.83
3598;BME280;1813;52.016;8.714;2023-07-09T05:45:56;-16261.94;;;-139.71;65.10
3598;BME280;1813;52.016;8.714;2023-07-09T05:48:30;-16261.94;;;-139.71;65.93
3598;BME280;1813;52.016;8.714;2023-07-09T05:51:04;-16261.94;;;-139.71;65.98
3598;BME280;1813;52.016;8.714;2023-07-09T05:53:38;-16261.94;;;-139.71;65.10
3598;BME280;1813;52.016;8.714;2023-07-09T05:56:12;-16261.94;;;-139.71;65.15
3598;BME280;1813;52.016;8.714;2023-07-09T05:58:46;-16261.94;;;-139.71;65.58
3598;BME280;1813;52.016;8.714;2023-07-09T06:01:22;-16261.94;;;-139.71;65.55
3598;BME280;1813;52.016;8.714;2023-07-09T06:03:56;-16261.94;;;-139.71;65.12
3598;BME280;1813;52.016;8.714;2023-07-09T06:06:30;-16261.94;;;-139.71;64.81
3598;BME280;1813;52.016;8.714;2023-07-09T06:09:04;-16261.94;;;-139.71;65.05
3598;BME280;1813;52.016;8.714;2023-07-09T06:11:38;-16261.94;;;-139.71;65.16
3598;BME280;1813;52.016;8.714;2023-07-09T06:14:12;-16261.94;;;-139.71;64.91
3598;BME280;1813;52.016;8.714;2023-07-09T06:16:50;-16261.94;;;-139.71;64.47
3598;BME280;1813;52.016;8.714;2023-07-09T06:19:24;-16261.94;;;-139.71;64.80
3598;BME280;1813;52.016;8.714;2023-07-09T06:21:57;-16261.94;;;-139.71;64.89
3598;BME280;1813;52.016;8.714;2023-07-09T06:24:31;-16261.94;;;-139.71;64.87
3598;BME280;1813;52.016;8.714;2023-07-09T06:27:05;-16261.94;;;-139.71;64.06
3598;BME280;1813;52.016;8.714;2023-07-09T06:29:39;-16261.94;;;-139.71;63.96
3598;BME280;1813;52.016;8.714;2023-07-09T06:32:15;-16261.94;;;-139.71;63.28
3598;BME280;1813;52.016;8.714;2023-07-09T06:34:49;-16261.94;;;-139.71;62.89
3598;BME280;1813;52.016;8.714;2023-07-09T06:37:24;-16261.94;;;-139.71;63.02
3598;BME280;1813;52.016;8.714;2023-07-09T06:39:57;-16261.94;;;-139.71;62.90
3598;BME280;1813;52.016;8.714;2023-07-09T06:42:33;-16261.94;;;-139.71;61.76
3598;BME280;1813;52.016;8.714;2023-07-09T06:45:30;-16261.94;;;-139.71;61.94
3598;BME280;1813;52.016;8.714;2023-07-09T06:48:06;-16261.94;;;-139.71;61.35
3598;BME280;1813;52.016;8.714;2023-07-09T06:50:40;-16261.94;;;-139.71;62.06
3598;BME280;1813;52.016;8.714;2023-07-09T06:53:14;-16261.94;;;-139.71;60.23
3598;BME280;1813;52.016;8.714;2023-07-09T06:55:48;-16261.94;;;-139.71;59.24
3598;BME280;1813;52.016;8.714;2023-07-09T06:58:24;-16261.94;;;-139.71;58.73
3598;BME280;1813;52.016;8.714;2023-07-09T07:01:00;-16261.94;;;-139.71;56.28
3598;BME280;1813;52.016;8.714;2023-07-09T07:03:37;-16261.94;;;-139.71;55.50
3598;BME280;1813;52.016;8.714;2023-07-09T07:06:11;-16261.94;;;-139.71;54.96
3598;BME280;1813;52.016;8.714;2023-07-09T07:08:46;-16261.94;;;-139.71;54.68
3598;BME280;1813;52.016;8.714;2023-07-09T07:11:19;-16261.94;;;-139.71;55.51
3598;BME280;1813;52.016;8.714;2023-07-09T07:13:53;-16261.94;;;-139.71;55.01
3598;BME280;1813;52.016;8.714;2023-07-09T07:16:29;-16261.94;;;-139.71;53.55
3598;BME280;1813;52.016;8.714;2023-07-09T07:19:05;-16261.94;;;-139.71;53.91
3598;BME280;1813;52.016;8.714;2023-07-09T07:21:40;-16261.94;;;-139.71;53.59
3598;BME280;1813;52.016;8.714;2023-07-09T07:24:14;-16261.94;;;-139.71;52.75
3598;BME280;1813;52.016;8.714;2023-07-09T07:26:48;-16261.94;;;-139.71;51.18
3598;BME280;1813;52.016;8.714;2023-07-09T07:29:21;-16261.94;;;-139.71;50.86
3598;BME280;1813;52.016;8.714;2023-07-09T07:31:56;-16261.94;;;-139.71;50.88
3598;BME280;1813;52.016;8.714;2023-07-09T07:34:33;-16261.94;;;-139.71;50.97
3598;BME280;1813;52.016;8.714;2023-07-09T07:37:10;-16261.94;;;-139.71;49.60
3598;BME280;1813;52.016;8.714;2023-07-09T07:39:43;-16261.94;;;-139.71;48.74
3598;BME280;1813;52.016;8.714;2023-07-09T07:42:17;-16261.94;;;-139.71;49.57
3598;BME280;1813;52.016;8.714;2023-07-09T07:44:52;-16261.94;;;-139.71;49.00
3598;BME280;1813;52.016;8.714;2023-07-09T07:47:26;-16261.94;;;-139.71;47.41
3598;BME280;1813;52.016;8.714;2023-07-09T07:50:04;-16261.94;;;-139.71;47.77
3598;BME280;1813;52.016;8.714;2023-07-09T07:52:38;-16261.94;;;-139.71;46.75
3598;BME280;1813;52.016;8.714;2023-07-09T07:55:12;-16261.94;;;-139.71;47.02
3598;BME280;1813;52.016;8.714;2023-07-09T07:57:46;-16261.94;;;-139.71;48.11
3598;BME280;1813;52.016;8.714;2023-07-09T08:00:20;-16261.94;;;-139.71;46.12
3598;BME280;1813;52.016;8.714;2023-07-09T08:02:53;-16261.94;;;-139.71;47.10
3598;BME280;1813;52.016;8.714;2023-07-09T08:05:30;-16261.94;;;-139.71;45.51
3598;BME280;1813;52.016;8.714;2023-07-09T08:08:04;-16261.94;;;-139.71;43.88
3598;BME280;1813;52.016;8.714;2023-07-09T08:10:38;-16261.94;;;-139.71;44.59
3598;BME280;1813;52.016;8.714;2023-07-09T08:13:12;-16261.94;;;-139.71;45.62
3598;BME280;1813;52.016;8.714;2023-07-09T08:15:46;-16261.94;;;-139.71;46.74
3598;BME280;1813;52.016;8.714;2023-07-09T08:18:20;-16261.94;;;-139.71;43.87
3598;BME280;1813;52.016;8.714;2023-07-09T08:20:57;-16261.94;;;-139.71;42.68
3598;BME280;1813;52.016;8.714;2023-07-09T08:23:31;-16261.94;;;-139.71;42.22
3598;BME280;1813;52.016;8.714;2023-07-09T08:26:05;-16261.94;;;-139.71;43.00
3598;BME280;1813;52.016;8.714;2023-07-09T08:28:39;-16261.94;;;-139.71;44.19
3598;BME280;1813;52.016;8.714;2023-07-09T08:31:14;-16261.94;;;-139.71;41.42
3598;BME280;1813;52.016;8.714;2023-07-09T08:33:48;-16261.94;;;-139.71;42.43
3598;BME280;1813;52.016;8.714;2023-07-09T08:36:24;-16261.94;;;-139.71;42.49
3598;BME280;1813;52.016;8.714;2023-07-09T08:38:58;-16261.94;;;-139.71;42.41
3598;BME280;1813;52.016;8.714;2023-07-09T08:41:39;-16261.94;;;-139.71;41.71
3598;BME280;1813;52.016;8.714;2023-07-09T08:44:41;-16261.94;;;-139.71;40.47
3598;BME280;1813;52.016;8.714;2023-07-09T08:47:25;-16261.94;;;-139.71;41.57
3598;BME280;1813;52.016;8.714;2023-07-09T08:50:08;-16261.94;;;-139.71;40.40
3598;BME280;1813;52.016;8.714;2023-07-09T08:52:48;-16261.94;;;-139.71;39.53
3598;BME280;1813;52.016;8.714;2023-07-09T08:55:25;-16261.94;;;-139.71;40.44
3598;BME280;1813;52.016;8.714;2023-07-09T08:58:12;-16261.94;;;-139.71;41.48
3598;BME280;1813;52.016;8.714;2023-07-09T09:00:52;-16261.94;;;-139.71;39.99
3598;BME280;1813;52.016;8.714;2023-07-09T09:03:34;-16261.94;;;-139.71;38.96
3598;BME280;1813;52.016;8.714;2023-07-09T09:06:11;-16261.94;;;-139.71;40.35
3598;BME280;1813;52.016;8.714;2023-07-09T09:08:55;-16261.94;;;-139.71;38.68
3598;BME280;1813;52.016;8.714;2023-07-09T09:11:42;-16261.94;;;-139.71;38.28
3598;BME280;1813;52.016;8.714;2023-07-09T09:14:25;-16261.94;;;-139.71;37.50
3598;BME280;1813;52.016;8.714;2023-07-09T09:17:02;-16261.94;;;-139.71;37.92
3598;BME280;1813;52.016;8.714;2023-07-09T09:19:39;-16261.94;;;-139.71;38.16
3598;BME280;1813;52.016;8.714;2023-07-09T09:22:23;-16261.94;;;-139.71;37.08
3598;BME280;1813;52.016;8.714;2023-07-09T09:25:05;-16261.94;;;-139.71;37.83
3598;BME280;1813;52.016;8.714;2023-07-09T09:27:45;-16261.94;;;-139.71;37.20
3598;BME280;1813;52.016;8.714;2023-07-09T09:30:22;-16261.94;;;-139.71;37.33
3598;BME280;1813;52.016;8.714;2023-07-09T09:33:00;-16261.94;;;-139.71;38.21
3598;BME280;1813;52.016;8.714;2023-07-09T09:35:36;-16261.94;;;-139.71;37.54
3598;BME280;1813;52.016;8.714;2023-07-09T09:38:12;-16261.94;;;-139.71;35.93
3598;BME280;1813;52.016;8.714;2023-07-09T09:40:49;-16261.94;;;-139.71;36.60
3598;BME280;1813;52.016;8.714;2023-07-09T09:43:23;-16261.94;;;-139.71;36.74
3598;BME280;1813;52.016;8.714;2023-07-09T09:45:58;-16261.94;;;-139.71;37.03
3598;BME280;1813;52.016;8.714;2023-07-09T09:48:33;-16261.94;;;-139.71;36.85
3598;BME280;1813;52.016;8.714;2023-07-09T09:51:07;-16261.94;;;-139.71;36.48
3598;BME280;1813;52.016;8.714;2023-07-09T09:53:45;-16261.94;;;-139.71;35.18
3598;BME280;1813;52.016;8.714;2023-07-09T09:56:28;-16261.94;;;-139.71;34.79
3598;BME280;1813;52.016;8.714;2023-07-09T09:59:04;-16261.94;;;-139.71;35.38
3598;BME280;1813;52.016;8.714;2023-07-09T10:01:38;-16261.94;;;-139.71;35.07
3598;BME280;1813;52.016;8.714;2023-07-09T10:04:16;-16261.94;;;-139.71;35.61
3598;BME280;1813;52.016;8.714;2023-07-09T10:06:56;-16261.94;;;-139.71;36.13
3598;BME280;1813;52.016;8.714;2023-07-09T10:09:38;-16261.94;;;-139.71;36.10
3598;BME280;1813;52.016;8.714;2023-07-09T10:12:34;-16261.94;;;-139.71;36.36
3598;BME280;1813;52.016;8.714;2023-07-09T10:15:20;-16261.94;;;-139.71;34.51
3598;BME280;1813;52.016;8.714;2023-07-09T10:18:01;-16261.94;;;-139.71;34.02
3598;BME280;1813;52.016;8.714;2023-07-09T10:20:42;-16261.94;;;-139.71;34.24
3598;BME280;1813;52.016;8.714;2023-07-09T10:23:24;-16261.94;;;-139.71;33.84
3598;BME280;1813;52.016;8.714;2023-07-09T10:26:05;-16261.94;;;-139.71;34.95
3598;BME280;1813;52.016;8.714;2023-07-09T10:31:52;-16261.94;;;-139.71;33.63
3598;BME280;1813;52.016;8.714;2023-07-09T10:34:34;-16261.94;;;-139.71;34.11
3598;BME280;1813;52.016;8.714;2023-07-09T10:37:34;-16261.94;;;-139.71;34.45
3598;BME280;1813;52.016;8.714;2023-07-09T10:40:15;-16261.94;;;-139.71;32.82
3598;BME280;1813;52.016;8.714;2023-07-09T10:42:52;-16261.94;;;-139.71;33.48
3598;BME280;1813;52.016;8.714;2023-07-09T10:45:30;-16261.94;;;-139.71;34.05
3598;BME280;1813;52.016;8.714;2023-07-09T10:48:12;-16261.94;;;-139.71;33.94
3598;BME280;1813;52.016;8.714;2023-07-09T10:50:51;-16261.94;;;-139.71;33.22
3598;BME280;1813;52.016;8.714;2023-07-09T10:53:30;-16261.94;;;-139.71;33.33
3598;BME280;1813;52.016;8.714;2023-07-09T10:56:12;-16261.94;;;-139.71;33.02
3598;BME280;1813;52.016;8.714;2023-07-09T10:58:51;-16261.94;;;-139.71;32.30
3598;BME280;1813;52.016;8.714;2023-07-09T11:01:31;-16261.94;;;-139.71;31.59
3598;BME280;1813;52.016;8.714;2023-07-09T11:04:15;-16261.94;;;-139.71;31.47
3598;BME280;1813;52.016;8.714;2023-07-09T11:06:59;-16261.94;;;-139.71;32.67
3598;BME280;1813;52.016;8.714;2023-07-09T11:09:38;-16261.94;;;-139.71;32.12
3598;BME280;1813;52.016;8.714;2023-07-09T11:12:21;-16261.94;;;-139.71;31.50
3598;BME280;1813;52.016;8.714;2023-07-09T11:15:00;-16261.94;;;-139.71;31.05
3598;BME280;1813;52.016;8.714;2023-07-09T11:17:40;-16261.94;;;-139.71;32.00
3598;BME280;1813;52.016;8.714;2023-07-09T11:20:25;-16261.94;;;-139.71;32.05
3598;BME280;1813;52.016;8.714;2023-07-09T11:23:02;-16261.94;;;-139.71;32.30
3598;BME280;1813;52.016;8.714;2023-07-09T11:25:44;-16261.94;;;-139.71;31.71
3598;BME280;1813;52.016;8.714;2023-07-09T11:28:33;-16261.94;;;-139.71;30.99
3598;BME280;1813;52.016;8.714;2023-07-09T11:31:08;-16261.94;;;-139.71;30.20
3598;BME280;1813;52.016;8.714;2023-07-09T11:34:00;-16261.94;;;-139.71;31.18
3598;BME280;1813;52.016;8.714;2023-07-09T11:36:47;-16261.94;;;-139.71;30.55
3598;BME280;1813;52.016;8.714;2023-07-09T11:39:23;-16261.94;;;-139.71;30.65
3598;BME280;1813;52.016;8.714;2023-07-09T11:42:01;-16261.94;;;-139.71;30.50
3598;BME280;1813;52.016;8.714;2023-07-09T11:44:45;-16261.94;;;-139.71;30.46
3598;BME280;1813;52.016;8.714;2023-07-09T11:47:22;-16261.94;;;-139.71;31.15
3598;BME280;1813;52.016;8.714;2023-07-09T11:50:00;-16261.94;;;-139.71;31.48
3598;BME280;1813;52.016;8.714;2023-07-09T11:52:43;-16261.94;;;-139.71;30.28
3598;BME280;1813;52.016;8.714;2023-07-09T11:55:27;-16261.94;;;-139.71;30.67
3598;BME280;1813;52.016;8.714;2023-07-09T11:58:03;-16261.94;;;-139.71;30.12
3598;BME280;1813;52.016;8.714;2023-07-09T12:00:39;-16261.94;;;-139.71;30.37
3598;BME280;1813;52.016;8.714;2023-07-09T12:03:16;-16261.94;;;-139.71;29.84
3598;BME280;1813;52.016;8.714;2023-07-09T12:05:52;-16261.94;;;-139.71;29.76
3598;BME280;1813;52.016;8.714;2023-07-09T12:08:34;-16261.94;;;-139.71;28.96
3598;BME280;1813;52.016;8.714;2023-07-09T12:11:18;-16261.94;;;-139.71;27.58
3598;BME280;1813;52.016;8.714;2023-07-09T12:13:53;-16261.94;;;-139.71;29.15
3598;BME280;1813;52.016;8.714;2023-07-09T12:16:28;-16261.94;;;-139.71;28.73
3598;BME280;1813;52.016;8.714;2023-07-09T12:19:03;-16261.94;;;-139.71;28.14
3598;BME280;1813;52.016;8.714;2023-07-09T12:21:38;-16261.94;;;-139.71;27.17
3598;BME280;1813;52.016;8.714;2023-07-09T12:24:19;-16261.94;;;-139.71;27.57
3598;BME280;1813;52.016;8.714;2023-07-09T12:26:55;-16261.94;;;-139.71;29.40
3598;BME280;1813;52.016;8.714;2023-07-09T12:29:31;-16261.94;;;-139.71;27.58
3598;BME280;1813;52.016;8.714;2023-07-09T12:32:14;-16261.94;;;-139.71;28.49
3598;BME280;1813;52.016;8.714;2023-07-09T12:34:50;-16261.94;;;-139.71;30.33
3598;BME280;1813;52.016;8.714;2023-07-09T12:37:25;-16261.94;;;-139.71;28.24
3598;BME280;1813;52.016;8.714;2023-07-09T12:40:12;-16261.94;;;-139.71;28.05
3598;BME280;1813;52.016;8.714;2023-07-09T12:42:47;-16261.94;;;-139.71;29.67
3598;BME280;1813;52.016;8.714;2023-07-09T12:45:23;-16261.94;;;-139.71;29.33
3598;BME280;1813;52.016;8.714;2023-07-09T12:47:57;-16261.94;;;-139.71;29.38
3598;BME280;1813;52.016;8.714;2023-07-09T12:50:32;-16261.94;;;-139.71;28.68
3598;BME280;1813;52.016;8.714;2023-07-09T12:53:14;-16261.94;;;-139.71;29.90
3598;BME280;1813;52.016;8.714;2023-07-09T12:55:51;-16261.94;;;-139.71;27.54
3598;BME280;1813;52.016;8.714;2023-07-09T12:58:30;-16261.94;;;-139.71;28.27
3598;BME280;1813;52.016;8.714;2023-07-09T13:01:11;-16261.94;;;-139.71;29.06
3598;BME280;1813;52.016;8.714;2023-07-09T13:03:53;-16261.94;;;-139.71;29.13
3598;BME280;1813;52.016;8.714;2023-07-09T13:06:29;-16261.94;;;-139.71;28.80
3598;BME280;1813;52.016;8.714;2023-07-09T13:09:15;-16261.94;;;-139.71;29.32
3598;BME280;1813;52.016;8.714;2023-07-09T13:11:54;-16261.94;;;-139.71;28.38
3598;BME280;1813;52.016;8.714;2023-07-09T13:14:30;-16261.94;;;-139.71;28.37
3598;BME280;1813;52.016;8.714;2023-07-09T13:17:06;-16261.94;;;-139.71;28.94
3598;BME280;1813;52.016;8.714;2023-07-09T13:19:41;-16261.94;;;-139.71;29.97
3598;BME280;1813;52.016;8.714;2023-07-09T13:22:18;-16261.94;;;-139.71;27.20
3598;BME280;1813;52.016;8.714;2023-07-09T13:24:52;-16261.94;;;-139.71;26.29
3598;BME280;1813;52.016;8.714;2023-07-09T13:27:28;-16261.94;;;-139.71;27.70
3598;BME280;1813;52.016;8.714;2023-07-09T13:30:03;-16261.94;;;-139.71;27.19
3598;BME280;1813;52.016;8.714;2023-07-09T13:32:38;-16261.94;;;-139.71;27.39
3598;BME280;1813;52.016;8.714;2023-07-09T13:35:17;-16261.94;;;-139.71;27.96
3598;BME280;1813;52.016;8.714;2023-07-09T13:37:53;-16261.94;;;-139.71;26.90
3598;BME280;1813;52.016;8.714;2023-07-09T13:40:27;-16261.94;;;-139.71;27.12
3598;BME280;1813;52.016;8.714;2023-07-09T13:43:04;-16261.94;;;-139.71;26.79
3598;BME280;1813;52.016;8.714;2023-07-09T13:45:41;-16261.94;;;-139.71;26.15